地図

経路データ

SID SEASON NUMBER BASIN SUBBASIN NAME ISO_TIME NATURE LAT LON WMO_WIND WMO_PRES WMO_AGENCY TRACK_TYPE DIST2LAND LANDFALL IFLAG USA_AGENCY USA_ATCF_ID USA_LAT USA_LON USA_RECORD USA_STATUS USA_WIND USA_PRES USA_SSHS USA_R34_NE USA_R34_SE USA_R34_SW USA_R34_NW USA_R50_NE USA_R50_SE USA_R50_SW USA_R50_NW USA_R64_NE USA_R64_SE USA_R64_SW USA_R64_NW USA_POCI USA_ROCI USA_RMW USA_EYE TOKYO_LAT TOKYO_LON TOKYO_GRADE TOKYO_WIND TOKYO_PRES TOKYO_R50_DIR TOKYO_R50_LONG TOKYO_R50_SHORT TOKYO_R30_DIR TOKYO_R30_LONG TOKYO_R30_SHORT TOKYO_LAND CMA_LAT CMA_LON CMA_CAT CMA_WIND CMA_PRES HKO_LAT HKO_LON HKO_CAT HKO_WIND HKO_PRES NEWDELHI_LAT NEWDELHI_LON NEWDELHI_GRADE NEWDELHI_WIND NEWDELHI_PRES NEWDELHI_CI NEWDELHI_DP NEWDELHI_POCI REUNION_LAT REUNION_LON REUNION_TYPE REUNION_WIND REUNION_PRES REUNION_TNUM REUNION_CI REUNION_RMW REUNION_R34_NE REUNION_R34_SE REUNION_R34_SW REUNION_R34_NW REUNION_R50_NE REUNION_R50_SE REUNION_R50_SW REUNION_R50_NW REUNION_R64_NE REUNION_R64_SE REUNION_R64_SW REUNION_R64_NW BOM_LAT BOM_LON BOM_TYPE BOM_WIND BOM_PRES BOM_TNUM BOM_CI BOM_RMW BOM_R34_NE BOM_R34_SE BOM_R34_SW BOM_R34_NW BOM_R50_NE BOM_R50_SE BOM_R50_SW BOM_R50_NW BOM_R64_NE BOM_R64_SE BOM_R64_SW BOM_R64_NW BOM_ROCI BOM_POCI BOM_EYE BOM_POS_METHOD BOM_PRES_METHOD NADI_LAT NADI_LON NADI_CAT NADI_WIND NADI_PRES WELLINGTON_LAT WELLINGTON_LON WELLINGTON_WIND WELLINGTON_PRES DS824_LAT DS824_LON DS824_STAGE DS824_WIND DS824_PRES TD9636_LAT TD9636_LON TD9636_STAGE TD9636_WIND TD9636_PRES TD9635_LAT TD9635_LON TD9635_WIND TD9635_PRES TD9635_ROCI NEUMANN_LAT NEUMANN_LON NEUMANN_CLASS NEUMANN_WIND NEUMANN_PRES MLC_LAT MLC_LON MLC_CLASS MLC_WIND MLC_PRES USA_GUST BOM_GUST BOM_GUST_PER REUNION_GUST REUNION_GUST_PER USA_SEAHGT USA_SEARAD_NE USA_SEARAD_SE USA_SEARAD_SW USA_SEARAD_NW STORM_SPEED STORM_DIR
1884247N15324 1884 30 NA NA NOT_NAMED 1884-09-02 12:00:00 TS 14.5000 -36.5000 main 1983 1904 _____________O -1 14.5000 -36.5000 TS 35 18 273
1884247N15324 1884 30 NA NA NOT_NAMED 1884-09-02 15:00:00 TS 14.5508 -37.4124 main 1911 1833 _____________P -1 14.5508 -37.4124 TS 37 17 273
1884247N15324 1884 30 NA NA NOT_NAMED 1884-09-02 18:00:00 TS 14.6000 -38.3000 main 1833 1773 _____________O -1 14.6000 -38.3000 TS 40 17 273
1884247N15324 1884 30 NA NA NOT_NAMED 1884-09-02 21:00:00 TS 14.6495 -39.1500 main 1757 1579 _____________P -1 14.6495 -39.1500 TS 42 24 242
1884247N15324 1884 30 NA NA NOT_NAMED 1884-09-03 00:00:00 TS 13.4667 -40.5000 40 hurdat_atl main 1571 1452 O____________O hurdat_atl AL021884 11.0000 -41.5000 TS 40 0 14.7000 -40.0000 TS 45 29 235
1884247N15324 1884 30 NA NA NOT_NAMED 1884-09-03 03:00:00 TS 13.0026 -41.5336 main 1452 1365 P____________P AL021884 11.2629 -42.1671 TS 40 0 14.7423 -40.9001 TS 45 20 251
1884247N15324 1884 30 NA NA NOT_NAMED 1884-09-03 06:00:00 TS 12.8200 -42.4000 40 hurdat_atl main 1365 1311 O____________O hurdat_atl AL021884 11.5000 -42.8000 TS 40 0 14.8000 -41.8000 TS 45 16 262
1884247N15324 1884 30 NA NA NOT_NAMED 1884-09-03 09:00:00 TS 12.7747 -43.1428 main 1311 1275 P____________P AL021884 11.7122 -43.3855 TS 40 0 14.8996 -42.6574 TS 50 14 277
1884247N15324 1884 30 NA NA NOT_NAMED 1884-09-03 12:00:00 TS 13.0000 -43.8333 40 hurdat_atl main 1276 1248 O____________O hurdat_atl AL021884 12.0000 -44.0000 TS 40 0 15.0000 -43.5000 TS 55 15 291
1884247N15324 1884 30 NA NA NOT_NAMED 1884-09-03 15:00:00 TS 13.3099 -44.6043 main 1248 1232 P____________P AL021884 12.4400 -44.7277 TS 40 0 15.0498 -44.3577 TS 57 17 295
1884247N15324 1884 30 NA NA NOT_NAMED 1884-09-03 18:00:00 TS 13.7000 -45.4000 40 hurdat_atl main 1236 1222 O____________O hurdat_atl AL021884 13.0000 -45.5000 TS 40 0 15.1000 -45.2000 TS 60 17 299
1884247N15324 1884 30 NA NA NOT_NAMED 1884-09-03 21:00:00 TS 14.1413 -46.1595 main 1218 1218 P____________P AL021884 13.6122 -46.2355 TS 40 0 15.1996 -46.0074 TS 60 18 302
1884247N15324 1884 30 NA NA NOT_NAMED 1884-09-04 00:00:00 TS 14.6333 -46.9333 40 hurdat_atl main 1223 1221 O____________O hurdat_atl AL021884 14.3000 -47.0000 TS 40 0 15.3000 -46.8000 TS 60 19 304
1884247N15324 1884 30 NA NA NOT_NAMED 1884-09-04 03:00:00 TS 15.1723 -47.7615 main 1236 1231 P____________P AL021884 15.0799 -47.8421 TS 40 0 15.3572 -47.6001 TS 62 19 303
1884247N15324 1884 30 NA NA NOT_NAMED 1884-09-04 06:00:00 TS 15.6667 -48.6000 40 hurdat_atl main 1251 1245 O____________O hurdat_atl AL021884 15.8000 -48.7000 TS 40 0 15.4000 -48.4000 HU 65 18 298
1884247N15324 1884 30 NA NA NOT_NAMED 1884-09-04 09:00:00 TS 16.0230 -49.4130 main 1246 1241 P____________P AL021884 16.3247 -49.5155 TS 45 0 15.4198 -49.2079 HU 65 17 292
1884247N15324 1884 30 NA NA NOT_NAMED 1884-09-04 12:00:00 TS 16.3000 -50.2000 50 hurdat_atl main 1243 1239 O____________O hurdat_atl AL021884 16.7000 -50.3000 TS 50 0 15.5000 -50.0000 HU 65 16 289
1884247N15324 1884 30 NA NA NOT_NAMED 1884-09-04 15:00:00 TS 16.5498 -50.9754 main 1237 1214 P____________P AL021884 16.9649 -51.0881 TS 50 0 15.7196 -50.7499 HU 65 15 289
1884247N15324 1884 30 NA NA NOT_NAMED 1884-09-04 18:00:00 TS 16.8000 -51.7000 50 hurdat_atl main 1214 1181 O____________O hurdat_atl AL021884 17.2000 -51.8000 TS 50 0 16.0000 -51.5000 HU 65 14 293
1884247N15324 1884 30 NA NA NOT_NAMED 1884-09-04 21:00:00 TS 17.1163 -52.3509 main 1172 1151 P____________P AL021884 17.5496 -52.3801 TS 55 0 16.2498 -52.2927 HU 67 14 298
1884247N15324 1884 30 NA NA NOT_NAMED 1884-09-05 00:00:00 TS 17.4333 -52.9667 60 hurdat_atl main 1143 1118 O____________O hurdat_atl AL021884 17.9000 -52.9000 TS 60 0 16.5000 -53.1000 HU 70 13 296
1884247N15324 1884 30 NA NA NOT_NAMED 1884-09-05 03:00:00 TS 17.6932 -53.6077 main 1118 1089 P____________P AL021884 18.1649 -53.4578 TS 60 0 16.7498 -53.9077 HU 70 13 293
1884247N15324 1884 30 NA NA NOT_NAMED 1884-09-05 06:00:00 TS 17.9333 -54.2333 60 hurdat_atl main 1089 1070 O____________O hurdat_atl AL021884 18.4000 -54.0000 TS 60 0 17.0000 -54.7000 HU 70 13 293
1884247N15324 1884 30 NA NA NOT_NAMED 1884-09-05 09:00:00 TS 18.1983 -54.8541 main 1065 1051 P____________P AL021884 18.6725 -54.5299 TS 65 1 17.2501 -55.5025 HU 72 12 294
1884247N15324 1884 30 NA NA NOT_NAMED 1884-09-05 12:00:00 TS 18.4333 -55.4000 70 hurdat_atl main 1051 1033 O____________O hurdat_atl AL021884 18.9000 -55.0000 HU 70 1 17.5000 -56.2000 HU 75 10 293
1884247N15324 1884 30 NA NA NOT_NAMED 1884-09-05 15:00:00 TS 18.5931 -55.8261 main 1033 1002 P____________P AL021884 19.0148 -55.3803 HU 70 1 17.7496 -56.7177 HU 75 8 292
1884247N15324 1884 30 NA NA NOT_NAMED 1884-09-05 18:00:00 TS 18.7333 -56.1667 70 hurdat_atl main 991 960 O____________O hurdat_atl AL021884 19.1000 -55.7000 HU 70 1 18.0000 -57.1000 HU 75 7 297
1884247N15324 1884 30 NA NA NOT_NAMED 1884-09-05 21:00:00 TS 18.9041 -56.4842 main 960 929 P____________P AL021884 19.2424 -56.0000 HU 75 1 18.2274 -57.4526 HU 77 7 303
1884247N15324 1884 30 NA NA NOT_NAMED 1884-09-06 00:00:00 TS 19.1000 -56.7667 80 hurdat_atl main 929 909 O____________O hurdat_atl AL021884 19.4000 -56.3000 HU 80 1 18.5000 -57.7000 HU 80 7 308
1884247N15324 1884 30 NA NA NOT_NAMED 1884-09-06 03:00:00 TS 19.3283 -57.0484 main 910 881 P____________P AL021884 19.5500 -56.6500 HU 80 1 18.8849 -57.8450 HU 82 7 313
1884247N15324 1884 30 NA NA NOT_NAMED 1884-09-06 06:00:00 TS 19.5667 -57.3000 80 hurdat_atl main 882 863 O____________O hurdat_atl AL021884 19.7000 -57.0000 HU 80 1 19.3000 -57.9000 HU 85 6 314
1884247N15324 1884 30 NA NA NOT_NAMED 1884-09-06 09:00:00 TS 19.7784 -57.5400 main 865 846 P____________P AL021884 19.8275 -57.3450 HU 85 2 19.6800 -57.9300 HU 87 6 319
1884247N15324 1884 30 NA NA NOT_NAMED 1884-09-06 12:00:00 TS 20.0000 -57.7000 90 hurdat_atl main 848 848 O____________O hurdat_atl AL021884 20.0000 -57.6000 HU 90 2 20.0000 -57.9000 HU 90 5 338
1884247N15324 1884 30 NA NA NOT_NAMED 1884-09-06 15:00:00 TS 20.2616 -57.7450 main 855 855 P____________P AL021884 20.2849 -57.7100 HU 90 2 20.2150 -57.8150 HU 92 5 2
1884247N15324 1884 30 NA NA NOT_NAMED 1884-09-06 18:00:00 TS 20.5333 -57.7000 90 hurdat_atl main 860 860 O____________O hurdat_atl AL021884 20.6000 -57.7000 HU 90 2 20.4000 -57.7000 HU 95 5 13
1884247N15324 1884 30 NA NA NOT_NAMED 1884-09-06 21:00:00 TS 20.7858 -57.6200 main 879 879 P____________P AL021884 20.8575 -57.6300 HU 95 2 20.6425 -57.6000 HU 97 5 20
1884247N15324 1884 30 NA NA NOT_NAMED 1884-09-07 00:00:00 TS 21.0333 -57.5000 100 hurdat_atl main 896 896 O____________O hurdat_atl AL021884 21.1000 -57.5000 HU 100 3 20.9000 -57.5000 MH 100 6 25
1884247N15324 1884 30 NA NA NOT_NAMED 1884-09-07 03:00:00 TS 21.2883 -57.3667 main 916 916 P____________P AL021884 21.3575 -57.3500 HU 100 3 21.1500 -57.4000 MH 100 6 26
1884247N15324 1884 30 NA NA NOT_NAMED 1884-09-07 06:00:00 TS 21.5333 -57.2333 100 hurdat_atl main 943 943 O____________O hurdat_atl AL021884 21.6000 -57.2000 HU 100 3 21.4000 -57.3000 MH 100 5 24
1884247N15324 1884 30 NA NA NOT_NAMED 1884-09-07 09:00:00 TS 21.7299 -57.1530 main 951 951 P____________P AL021884 21.8000 -57.0999 HU 100 3 21.5897 -57.2591 MH 100 5 23
1884247N15324 1884 30 NA NA NOT_NAMED 1884-09-07 12:00:00 TS 21.9667 -57.0333 100 957 hurdat_atl main 983 983 O____________O hurdat_atl AL021884 22.0000 -57.0000 HU 100 957 3 21.9000 -57.1000 MH 100 957 7 30
1884247N15324 1884 30 NA NA NOT_NAMED 1884-09-07 15:00:00 TS 22.3277 -56.7747 main 1015 1015 P____________P AL021884 22.2275 -56.8575 HU 100 3 22.5281 -56.6091 MH 100 9 33
1884247N15324 1884 30 NA NA NOT_NAMED 1884-09-07 18:00:00 TS 22.7333 -56.5000 100 hurdat_atl main 1062 1062 O____________O hurdat_atl AL021884 22.5000 -56.7000 HU 100 3 23.2000 -56.1000 MH 100 9 27
1884247N15324 1884 30 NA NA NOT_NAMED 1884-09-07 21:00:00 TS 23.1174 -56.3397 main 1100 1100 P____________P AL021884 22.8500 -56.5575 HU 100 3 23.6522 -55.9041 MH 100 8 21
1884247N15324 1884 30 NA NA NOT_NAMED 1884-09-08 00:00:00 TS 23.4667 -56.2000 100 hurdat_atl main 1129 1129 O____________O hurdat_atl AL021884 23.2000 -56.4000 HU 100 3 24.0000 -55.8000 MH 100 7 26
1884247N15324 1884 30 NA NA NOT_NAMED 1884-09-08 03:00:00 TS 23.7408 -56.0024 main 1158 1158 P____________P AL021884 23.4500 -56.2073 HU 100 3 24.3225 -55.5925 MH 100 6 35
1884247N15324 1884 30 NA NA NOT_NAMED 1884-09-08 06:00:00 TS 24.0000 -55.8000 100 hurdat_atl main 1192 1192 O____________O hurdat_atl AL021884 23.7000 -56.0000 HU 100 3 24.6000 -55.4000 MH 100 7 30
1884247N15324 1884 30 NA NA NOT_NAMED 1884-09-08 09:00:00 TS 24.3116 -55.6382 main 1227 1227 P____________P AL021884 24.0349 -55.8148 HU 100 3 24.8650 -55.2849 MH 100 7 26
1884247N15324 1884 30 NA NA NOT_NAMED 1884-09-08 12:00:00 TS 24.6333 -55.4667 100 hurdat_atl main 1252 1252 O____________O hurdat_atl AL021884 24.4000 -55.6000 HU 100 3 25.1000 -55.2000 MH 100 7 30
1884247N15324 1884 30 NA NA NOT_NAMED 1884-09-08 15:00:00 TS 24.9534 -55.2359 main 1302 1302 P____________P AL021884 24.7726 -55.3077 HU 100 3 25.3150 -55.0925 MH 100 7 35
1884247N15324 1884 30 NA NA NOT_NAMED 1884-09-08 18:00:00 TS 25.2333 -55.0000 100 hurdat_atl main 1331 1331 O____________O hurdat_atl AL021884 25.1000 -55.0000 HU 100 3 25.5000 -55.0000 MH 100 6 39
1884247N15324 1884 30 NA NA NOT_NAMED 1884-09-08 21:00:00 TS 25.4291 -54.8089 main 1360 1360 P____________P AL021884 25.3149 -54.7422 HU 95 2 25.6575 -54.9424 MH 95 5 42
1884247N15324 1884 30 NA NA NOT_NAMED 1884-09-09 00:00:00 TS 25.6000 -54.6333 90 hurdat_atl main 1389 1389 O____________O hurdat_atl AL021884 25.5000 -54.5000 HU 90 2 25.8000 -54.9000 HU 90 5 42
1884247N15324 1884 30 NA NA NOT_NAMED 1884-09-09 03:00:00 TS 25.8042 -54.4400 main 1418 1418 P____________P AL021884 25.7350 -54.2350 HU 90 2 25.9425 -54.8500 HU 90 5 37
1884247N15324 1884 30 NA NA NOT_NAMED 1884-09-09 06:00:00 TS 26.0333 -54.2667 90 hurdat_atl main 1439 1439 O____________O hurdat_atl AL021884 26.0000 -54.0000 HU 90 2 26.1000 -54.8000 HU 90 6 29
1884247N15324 1884 30 NA NA NOT_NAMED 1884-09-09 09:00:00 TS 26.3150 -54.1300 main 1474 1474 P____________P AL021884 26.3225 -53.8200 HU 90 2 26.3000 -54.7500 HU 90 6 22
1884247N15324 1884 30 NA NA NOT_NAMED 1884-09-09 12:00:00 TS 26.5667 -54.0333 90 hurdat_atl main 1501 1501 O____________O hurdat_atl AL021884 26.6000 -53.7000 HU 90 2 26.5000 -54.7000 HU 90 4 20
1884247N15324 1884 30 NA NA NOT_NAMED 1884-09-09 15:00:00 TS 26.7008 -53.9732 main 1508 1508 P____________P AL021884 26.7225 -53.6348 HU 90 2 26.6575 -54.6500 HU 90 3 21
1884247N15324 1884 30 NA NA NOT_NAMED 1884-09-09 18:00:00 TS 26.8000 -53.9333 90 hurdat_atl main 1522 1522 O____________O hurdat_atl AL021884 26.8000 -53.6000 HU 90 2 26.8000 -54.6000 HU 90 3 18
1884247N15324 1884 30 NA NA NOT_NAMED 1884-09-09 21:00:00 TS 26.9500 -53.8808 main 1535 1529 P____________P AL021884 26.9500 -53.5500 HU 90 2 26.9500 -54.5425 HU 90 3 16
1884247N15324 1884 30 NA NA NOT_NAMED 1884-09-10 00:00:00 TS 27.1000 -53.8333 90 hurdat_atl main 1550 1550 O____________O hurdat_atl AL021884 27.1000 -53.5000 HU 90 2 27.1000 -54.5000 HU 90 3 16
1884247N15324 1884 30 NA NA NOT_NAMED 1884-09-10 03:00:00 TS 27.2217 -53.7975 main 1557 1557 P____________P AL021884 27.2075 -53.4500 HU 90 2 27.2500 -54.4925 HU 90 2 14
1884247N15324 1884 30 NA NA NOT_NAMED 1884-09-10 06:00:00 TS 27.3333 -53.7667 90 hurdat_atl main 1563 1563 O____________O hurdat_atl AL021884 27.3000 -53.4000 HU 90 2 27.4000 -54.5000 HU 90 2 18
1884247N15324 1884 30 NA NA NOT_NAMED 1884-09-10 09:00:00 TS 27.4475 -53.7209 main 1578 1578 P____________P AL021884 27.3925 -53.3276 HU 90 2 27.5575 -54.5075 HU 90 2 14
1884247N15324 1884 30 NA NA NOT_NAMED 1884-09-10 12:00:00 TS 27.5667 -53.7000 90 hurdat_atl main 1591 1591 O____________O hurdat_atl AL021884 27.5000 -53.3000 HU 90 2 27.7000 -54.5000 HU 90 3 354
1884247N15324 1884 30 NA NA NOT_NAMED 1884-09-10 15:00:00 TS 27.7025 -53.7424 main 1598 1590 P____________P AL021884 27.6500 -53.3849 HU 90 2 27.8075 -54.4575 HU 90 3 342
1884247N15324 1884 30 NA NA NOT_NAMED 1884-09-10 18:00:00 TS 27.8333 -53.8000 90 hurdat_atl main 1597 1597 O____________O hurdat_atl AL021884 27.8000 -53.5000 HU 90 2 27.9000 -54.4000 HU 90 3 342
1884247N15324 1884 30 NA NA NOT_NAMED 1884-09-10 21:00:00 TS 27.9408 -53.8267 main 1604 1604 P____________P AL021884 27.9075 -53.5650 HU 90 2 28.0075 -54.3500 HU 90 2 347
1884247N15324 1884 30 NA NA NOT_NAMED 1884-09-11 00:00:00 TS 28.0333 -53.8333 90 hurdat_atl main 1611 1611 O____________O hurdat_atl AL021884 28.0000 -53.6000 HU 90 2 28.1000 -54.3000 HU 90 2 8
1884247N15324 1884 30 NA NA NOT_NAMED 1884-09-11 03:00:00 TS 28.1117 -53.8167 main 1618 1618 P____________P AL021884 28.0925 -53.6000 HU 90 2 28.1500 -54.2500 HU 87 2 15
1884247N15324 1884 30 NA NA NOT_NAMED 1884-09-11 06:00:00 TS 28.2000 -53.8000 90 hurdat_atl main 1626 1626 O____________O hurdat_atl AL021884 28.2000 -53.6000 HU 90 2 28.2000 -54.2000 HU 85 2 0
1884247N15324 1884 30 NA NA NOT_NAMED 1884-09-11 09:00:00 TS 28.3333 -53.8166 main 1633 1633 P____________P AL021884 28.3500 -53.6499 HU 90 2 28.3000 -54.1500 HU 85 3 354
1884247N15324 1884 30 NA NA NOT_NAMED 1884-09-11 12:00:00 TS 28.4667 -53.8333 90 hurdat_atl main 1647 1647 O____________O hurdat_atl AL021884 28.5000 -53.7000 HU 90 2 28.4000 -54.1000 HU 85 2 354
1884247N15324 1884 30 NA NA NOT_NAMED 1884-09-11 15:00:00 TS 28.5525 -53.8242 main 1655 1655 P____________P AL021884 28.6000 -53.7150 HU 90 2 28.4575 -54.0425 HU 85 2 15
1884247N15324 1884 30 NA NA NOT_NAMED 1884-09-11 18:00:00 TS 28.6333 -53.8000 90 hurdat_atl main 1655 1655 O____________O hurdat_atl AL021884 28.7000 -53.7000 HU 90 2 28.5000 -54.0000 HU 85 2 12
1884247N15324 1884 30 NA NA NOT_NAMED 1884-09-11 21:00:00 TS 28.7500 -53.7692 main 1669 1669 P____________P AL021884 28.8500 -53.6575 HU 85 2 28.5500 -53.9925 HU 82 2 14
1884247N15324 1884 30 NA NA NOT_NAMED 1884-09-12 00:00:00 TS 28.8667 -53.7333 80 hurdat_atl main 1684 1684 O____________O hurdat_atl AL021884 29.0000 -53.6000 HU 80 1 28.6000 -54.0000 HU 80 2 16
1884247N15324 1884 30 NA NA NOT_NAMED 1884-09-12 03:00:00 TS 28.9475 -53.7050 main 1684 1684 P____________P AL021884 29.1000 -53.5574 HU 80 1 28.6425 -54.0000 HU 80 2 20
1884247N15324 1884 30 NA NA NOT_NAMED 1884-09-12 06:00:00 TS 29.0333 -53.6667 80 hurdat_atl main 1691 1691 O____________O hurdat_atl AL021884 29.2000 -53.5000 HU 80 1 28.7000 -54.0000 HU 80 2 18
1884247N15324 1884 30 NA NA NOT_NAMED 1884-09-12 09:00:00 TS 29.1766 -53.6225 main 1713 1713 P____________P AL021884 29.3575 -53.4150 HU 80 1 28.8149 -54.0375 HU 80 3 23
1884247N15324 1884 30 NA NA NOT_NAMED 1884-09-12 12:00:00 TS 29.3000 -53.5333 80 hurdat_atl main 1728 1728 O____________O hurdat_atl AL021884 29.5000 -53.3000 HU 80 1 28.9000 -54.0000 HU 80 3 55
1884247N15324 1884 30 NA NA NOT_NAMED 1884-09-12 15:00:00 TS 29.3342 -53.3674 main 1735 1735 P____________P AL021884 29.5650 -53.1574 HU 80 1 28.8726 -53.7874 HU 80 3 84
1884247N15324 1884 30 NA NA NOT_NAMED 1884-09-12 18:00:00 TS 29.3333 -53.1667 80 hurdat_atl main 1750 1750 O____________O hurdat_atl AL021884 29.6000 -53.0000 HU 80 1 28.8000 -53.5000 HU 80 3 87
1884247N15324 1884 30 NA NA NOT_NAMED 1884-09-12 21:00:00 TS 29.3500 -52.9833 main 1764 1764 P____________P AL021884 29.6500 -52.8500 HU 80 1 28.7500 -53.2500 HU 80 3 84
1884247N15324 1884 30 NA NA NOT_NAMED 1884-09-13 00:00:00 TS 29.3667 -52.8000 80 hurdat_atl main 1786 1786 O____________O hurdat_atl AL021884 29.7000 -52.7000 HU 80 1 28.7000 -53.0000 HU 80 3 84
1884247N15324 1884 30 NA NA NOT_NAMED 1884-09-13 03:00:00 TS 29.3833 -52.6217 main 1801 1801 P____________P AL021884 29.7500 -52.5575 HU 80 1 28.6500 -52.7500 HU 77 3 84
1884247N15324 1884 30 NA NA NOT_NAMED 1884-09-13 06:00:00 TS 29.4000 -52.4333 80 hurdat_atl main 1816 1816 O____________O hurdat_atl AL021884 29.8000 -52.4000 HU 80 1 28.6000 -52.5000 HU 75 3 89
1884247N15324 1884 30 NA NA NOT_NAMED 1884-09-13 09:00:00 TS 29.3864 -52.2612 main 1823 1823 P____________P AL021884 29.8423 -52.2374 HU 80 1 28.4744 -52.3089 HU 75 4 85
1884247N15324 1884 30 NA NA NOT_NAMED 1884-09-13 12:00:00 TS 29.4333 -52.0000 80 hurdat_atl main 1846 1846 O____________O hurdat_atl AL021884 29.9000 -52.0000 HU 80 1 28.5000 -52.0000 HU 75 6 71
1884247N15324 1884 30 NA NA NOT_NAMED 1884-09-13 15:00:00 TS 29.6001 -51.5642 main 1890 1878 P____________P AL021884 29.9625 -51.6446 HU 80 1 28.8755 -51.4035 HU 75 9 63
1884247N15324 1884 30 NA NA NOT_NAMED 1884-09-13 18:00:00 TS 29.8667 -51.0333 80 hurdat_atl main 1869 1839 O____________O hurdat_atl AL021884 30.1000 -51.2000 HU 80 1 29.4000 -50.7000 HU 75 11 57
1884247N15324 1884 30 NA NA NOT_NAMED 1884-09-13 21:00:00 TS 30.1914 -50.5172 main 1840 1812 P____________P AL021884 30.3623 -50.7299 HU 80 1 29.8496 -50.0919 HU 75 12 53
1884247N15324 1884 30 NA NA NOT_NAMED 1884-09-14 00:00:00 TS 30.5667 -49.9667 80 hurdat_atl main 1802 1777 O____________O hurdat_atl AL021884 30.7000 -50.2000 HU 80 1 30.3000 -49.5000 HU 75 12 54
1884247N15324 1884 30 NA NA NOT_NAMED 1884-09-14 03:00:00 TS 30.9025 -49.3682 main 1777 1744 P____________P AL021884 30.9751 -49.5988 HU 80 1 30.7571 -48.9070 HU 75 13 53
1884247N15324 1884 30 NA NA NOT_NAMED 1884-09-14 06:00:00 TS 31.3333 -48.7667 80 hurdat_atl main 1744 1688 O____________O hurdat_atl AL021884 31.4000 -49.0000 HU 80 1 31.2000 -48.3000 HU 75 15 44
1884247N15324 1884 30 NA NA NOT_NAMED 1884-09-14 09:00:00 TS 31.9549 -48.1941 main 1679 1626 P____________P AL021884 32.1546 -48.4927 HU 75 1 31.5555 -47.5970 HU 72 16 35
1884247N15324 1884 30 NA NA NOT_NAMED 1884-09-14 12:00:00 TS 32.6667 -47.6667 70 hurdat_atl main 1615 1561 O____________O hurdat_atl AL021884 33.0000 -48.0000 HU 70 1 32.0000 -47.0000 HU 70 16 31
1884247N15324 1884 30 NA NA NOT_NAMED 1884-09-14 15:00:00 TS 33.3166 -47.2388 main 1564 1501 P____________P AL021884 33.6264 -47.5137 HU 70 1 32.6969 -46.6890 HU 70 16 29
1884247N15324 1884 30 NA NA NOT_NAMED 1884-09-14 18:00:00 TS 34.0333 -46.7667 70 hurdat_atl main 1501 1437 O____________O hurdat_atl AL021884 34.3000 -46.9000 HU 70 1 33.5000 -46.5000 HU 70 983 18 31
1884247N15324 1884 30 NA NA NOT_NAMED 1884-09-14 21:00:00 TS 34.8695 -46.1022 main 1430 1374 P____________P AL021884 35.1982 -46.0033 HU 70 1 34.2120 -46.2999 HU 67 21 34
1884247N15324 1884 30 NA NA NOT_NAMED 1884-09-15 00:00:00 TS 35.8000 -45.3333 70 hurdat_atl main 1368 1305 O____________O hurdat_atl AL021884 36.2000 -45.0000 HU 70 1 35.0000 -46.0000 HU 65 22 33
1884247N15324 1884 30 NA NA NOT_NAMED 1884-09-15 03:00:00 TS 36.7400 -44.6263 main 1309 1248 P____________P AL021884 37.1679 -44.1393 HU 70 1 35.8844 -45.6002 HU 65 24 33
1884247N15324 1884 30 NA NA NOT_NAMED 1884-09-15 06:00:00 TS 37.8000 -43.7333 70 hurdat_atl main 1249 1210 O____________O hurdat_atl AL021884 38.2000 -43.2000 HU 70 1 37.0000 -44.8000 HU 65 29 37
1884247N15324 1884 30 NA NA NOT_NAMED 1884-09-15 09:00:00 TS 39.0297 -42.4624 main 1210 1195 P____________P AL021884 39.3266 -42.0372 HU 65 1 38.4358 -43.3128 HU 62 33 40
1884247N15324 1884 30 NA NA NOT_NAMED 1884-09-15 12:00:00 TS 40.3333 -40.9667 60 hurdat_atl main 1202 1199 O____________O hurdat_atl AL021884 40.5000 -40.7000 TS 60 0 40.0000 -41.5000 TS 60 34 42
1884247N15324 1884 30 NA NA NOT_NAMED 1884-09-15 15:00:00 TS 41.5861 -39.4628 main 1215 1215 P____________P AL021884 41.6337 -39.2540 TS 60 0 41.4909 -39.8804 TS 57 34 43
1884247N15324 1884 30 NA NA NOT_NAMED 1884-09-15 18:00:00 TS 42.8333 -37.8667 60 hurdat_atl main 1258 1258 O____________O hurdat_atl AL021884 42.8000 -37.7000 TS 60 0 42.9000 -38.2000 TS 55 34 44
1884247N15324 1884 30 NA NA NOT_NAMED 1884-09-15 21:00:00 TS 44.0568 -36.1772 main 1318 1318 P____________P AL021884 44.0246 -36.1022 TS 55 0 44.1212 -36.3274 TS 52 35 45
1884247N15324 1884 30 NA NA NOT_NAMED 1884-09-16 00:00:00 TS 45.3000 -34.4000 50 hurdat_atl main 1407 1407 O____________O hurdat_atl AL021884 45.3000 -34.4000 TS 50 0 45.3000 -34.4000 TS 50 36 45
1884247N15324 1884 30 NA NA NOT_NAMED 1884-09-16 03:00:00 TS 46.6262 -32.5088 main 1515 1509 P____________P AL021884 46.6294 -32.5218 TS 50 0 46.6200 -32.4827 TS 47 37 45
1884247N15324 1884 30 NA NA NOT_NAMED 1884-09-16 06:00:00 TS 47.9000 -30.6000 50 hurdat_atl main 1498 1334 O____________O hurdat_atl AL021884 47.9000 -30.6000 TS 50 0 47.9000 -30.6000 TS 45 35 45
1884247N15324 1884 30 NA NA NOT_NAMED 1884-09-16 09:00:00 TS 49.1037 -28.7788 main 1323 1175 P____________P AL021884 49.1037 -28.7788 TS 45 0 49.1037 -28.7788 TS 42 32 48
1884247N15324 1884 30 NA NA NOT_NAMED 1884-09-16 12:00:00 TS 50.0000 -27.0000 40 hurdat_atl main 1168 1040 O____________O hurdat_atl AL021884 50.0000 -27.0000 TS 40 0 50.0000 -27.0000 TS 40 26 60
1884247N15324 1884 30 NA NA NOT_NAMED 1884-09-16 15:00:00 TS 50.4029 -25.2394 main 1033 922 P____________P AL021884 50.4029 -25.2394 TS 40 0 50.4029 -25.2394 TS 37 23 77
1884247N15324 1884 30 NA NA NOT_NAMED 1884-09-16 18:00:00 TS 50.5000 -23.5000 40 hurdat_atl main 915 O____________O hurdat_atl AL021884 50.5000 -23.5000 TS 40 0 50.5000 -23.5000 TS 35 22 85

IBTrACS Databaseについて

本データベースは、米国NOAAが公開する1842年以降の世界の熱帯低気圧のベストトラックデータアーカイブInternational Best Track Archive for Climate Stewardship (IBTrACS)を、ウェブで閲覧しやすい形式に変換したものです。

最終更新日:2021-11-26